createdAt,value
2023-05-02T00:00:10.766Z,11.63
2023-05-02T00:01:10.737Z,11.62
2023-05-02T00:02:10.769Z,11.62
2023-05-02T00:03:10.791Z,11.57
2023-05-02T00:04:10.792Z,11.59
2023-05-02T00:05:10.699Z,11.57
2023-05-02T00:06:10.694Z,11.57
2023-05-02T00:07:10.679Z,11.57
2023-05-02T00:08:10.640Z,11.57
2023-05-02T00:09:10.775Z,11.56
2023-05-02T00:10:10.601Z,11.56
2023-05-02T00:11:10.603Z,11.54
2023-05-02T00:12:10.603Z,11.51
2023-05-02T00:13:10.588Z,11.51
2023-05-02T00:14:10.566Z,11.53
2023-05-02T00:15:10.555Z,11.48
2023-05-02T00:16:10.537Z,11.48
2023-05-02T00:17:10.557Z,11.45
2023-05-02T00:18:10.535Z,11.45
2023-05-02T00:19:10.505Z,11.45
2023-05-02T00:20:10.478Z,11.42
2023-05-02T00:21:10.482Z,11.42
2023-05-02T00:22:10.466Z,11.39
2023-05-02T00:23:10.437Z,11.39
2023-05-02T00:24:10.424Z,11.39
2023-05-02T00:25:10.441Z,11.35
2023-05-02T00:26:10.394Z,11.35
2023-05-02T00:27:10.408Z,11.35
2023-05-02T00:28:10.385Z,11.33
2023-05-02T00:29:10.372Z,11.31
2023-05-02T00:30:10.352Z,11.31
2023-05-02T00:31:10.509Z,11.31
2023-05-02T00:32:10.481Z,11.28
2023-05-02T00:33:10.381Z,11.24
2023-05-02T00:34:10.303Z,11.23
2023-05-02T00:35:10.302Z,11.24
2023-05-02T00:36:10.262Z,11.23
2023-05-02T00:37:10.272Z,11.23
2023-05-02T00:38:10.266Z,11.20
2023-05-02T00:39:10.249Z,11.19
2023-05-02T00:40:10.215Z,11.16
2023-05-02T00:41:10.202Z,11.12
2023-05-02T00:42:10.204Z,11.09
2023-05-02T00:43:10.189Z,11.03
2023-05-02T00:44:10.163Z,11.03
2023-05-02T00:45:10.171Z,11.01
2023-05-02T00:46:10.172Z,10.98
2023-05-02T00:47:10.155Z,10.93
2023-05-02T00:48:10.174Z,10.90
2023-05-02T00:49:10.108Z,10.87
2023-05-02T00:50:10.107Z,10.83
2023-05-02T00:51:10.077Z,10.76
2023-05-02T00:52:10.081Z,10.73
2023-05-02T00:53:10.056Z,10.69
2023-05-02T00:54:10.037Z,10.65
2023-05-02T00:55:10.031Z,10.63
2023-05-02T00:56:10.034Z,10.62
2023-05-02T00:57:10.020Z,10.60
2023-05-02T00:58:09.993Z,10.55
2023-05-02T00:59:09.981Z,10.52
2023-05-02T01:00:09.946Z,10.51
2023-05-02T01:01:10.014Z,10.47
2023-05-02T01:02:10.057Z,10.43
2023-05-02T01:03:09.979Z,10.42
2023-05-02T01:04:09.993Z,10.39
2023-05-02T01:05:09.892Z,10.38
2023-05-02T01:06:09.896Z,10.35
2023-05-02T01:07:09.868Z,10.32
2023-05-02T01:08:09.860Z,10.31
2023-05-02T01:09:09.838Z,10.28
2023-05-02T01:10:09.834Z,10.25
2023-05-02T01:11:09.828Z,10.24
2023-05-02T01:12:09.798Z,10.18
2023-05-02T01:13:09.808Z,10.16
2023-05-02T01:14:09.762Z,10.13
2023-05-02T01:15:09.759Z,10.11
2023-05-02T01:16:09.827Z,10.10
2023-05-02T01:17:09.732Z,10.07
2023-05-02T01:18:09.815Z,10.04
2023-05-02T01:19:09.711Z,10.01
2023-05-02T01:20:09.701Z,10.01
2023-05-02T01:21:09.693Z,9.96
2023-05-02T01:22:09.662Z,9.93
2023-05-02T01:23:09.653Z,9.91
2023-05-02T01:24:09.621Z,9.88
2023-05-02T01:25:09.668Z,9.86
2023-05-02T01:26:09.624Z,9.81
2023-05-02T01:27:09.622Z,9.78
2023-05-02T01:28:09.595Z,9.77
2023-05-02T01:29:09.584Z,9.74
2023-05-02T01:30:09.575Z,9.70
2023-05-02T01:31:09.586Z,9.67
2023-05-02T01:32:09.536Z,9.65
2023-05-02T01:33:09.550Z,9.62
2023-05-02T01:34:09.499Z,9.60
2023-05-02T01:35:09.519Z,9.56
2023-05-02T01:36:09.479Z,9.55
2023-05-02T01:37:09.461Z,9.55
2023-05-02T01:38:09.451Z,9.53
2023-05-02T01:39:09.449Z,9.53
2023-05-02T01:40:09.443Z,9.53
2023-05-02T01:41:09.439Z,9.53
2023-05-02T01:42:09.405Z,9.53
2023-05-02T01:43:09.406Z,9.49
2023-05-02T01:44:09.385Z,9.49
2023-05-02T01:45:09.378Z,9.45
2023-05-02T01:46:09.373Z,9.44
2023-05-02T01:47:09.570Z,9.42
2023-05-02T01:48:09.391Z,9.41
2023-05-02T01:49:09.363Z,9.38
2023-05-02T01:50:09.315Z,9.35
2023-05-02T01:51:09.321Z,9.31
2023-05-02T01:52:09.278Z,9.27
2023-05-02T01:53:09.265Z,9.24
2023-05-02T01:54:09.245Z,9.23
2023-05-02T01:55:09.254Z,9.22
2023-05-02T01:56:09.237Z,9.19
2023-05-02T01:57:09.214Z,9.19
2023-05-02T01:58:09.200Z,9.17
2023-05-02T01:59:09.221Z,9.15
2023-05-02T02:00:09.178Z,9.13
2023-05-02T02:01:09.222Z,9.13
2023-05-02T02:02:09.152Z,9.10
2023-05-02T02:03:09.160Z,9.10
2023-05-02T02:04:09.167Z,9.10
2023-05-02T02:05:09.096Z,9.10
2023-05-02T02:06:09.142Z,9.06
2023-05-02T02:07:09.081Z,9.06
2023-05-02T02:08:09.123Z,9.04
2023-05-02T02:09:09.053Z,9.04
2023-05-02T02:10:09.053Z,9.03
2023-05-02T02:11:09.047Z,9.03
2023-05-02T02:12:08.996Z,9.03
2023-05-02T02:13:09.013Z,9.01
2023-05-02T02:14:08.994Z,9.00
2023-05-02T02:15:08.996Z,8.98
2023-05-02T02:16:09.099Z,8.98
2023-05-02T02:17:08.957Z,8.97
2023-05-02T02:18:08.972Z,8.98
2023-05-02T02:19:08.916Z,9.00
2023-05-02T02:20:08.914Z,8.98
2023-05-02T02:21:08.909Z,8.96
2023-05-02T02:22:08.900Z,8.96
2023-05-02T02:23:08.876Z,8.97
2023-05-02T02:24:08.855Z,8.96
2023-05-02T02:25:08.837Z,8.96
2023-05-02T02:26:08.847Z,8.97
2023-05-02T02:27:08.828Z,8.96
2023-05-02T02:28:08.800Z,8.97
2023-05-02T02:29:08.794Z,8.97
2023-05-02T02:30:08.769Z,8.97
2023-05-02T02:31:08.773Z,8.97
2023-05-02T02:32:08.753Z,8.97
2023-05-02T02:33:08.805Z,8.97
2023-05-02T02:34:08.706Z,8.98
2023-05-02T02:35:08.720Z,8.98
2023-05-02T02:36:08.712Z,8.98
2023-05-02T02:37:08.699Z,8.97
2023-05-02T02:38:08.670Z,8.97
2023-05-02T02:39:08.672Z,8.96
2023-05-02T02:40:08.686Z,8.98
2023-05-02T02:41:08.657Z,8.98
2023-05-02T02:42:08.635Z,9.00
2023-05-02T02:43:08.614Z,8.98
2023-05-02T02:44:08.605Z,8.98
2023-05-02T02:45:08.584Z,8.96
2023-05-02T02:46:08.622Z,8.96
2023-05-02T02:47:08.554Z,8.96
2023-05-02T02:48:08.557Z,8.98
2023-05-02T02:49:08.524Z,9.01
2023-05-02T02:50:08.549Z,9.01
2023-05-02T02:51:08.504Z,9.01
2023-05-02T02:52:08.486Z,9.01
2023-05-02T02:53:08.499Z,9.01
2023-05-02T02:54:23.060Z,9.03
2023-05-02T02:55:09.456Z,9.04
2023-05-02T02:56:08.427Z,9.06
2023-05-02T02:57:08.423Z,9.04
2023-05-02T02:58:08.403Z,9.04
2023-05-02T02:59:08.387Z,9.06
2023-05-02T03:00:08.406Z,9.06
2023-05-02T03:01:08.406Z,9.08
2023-05-02T03:02:08.602Z,9.10
2023-05-02T03:03:08.361Z,9.12
2023-05-02T03:04:08.410Z,9.13
2023-05-02T03:05:08.328Z,9.16
2023-05-02T03:06:08.310Z,9.17
2023-05-02T03:07:08.289Z,9.17
2023-05-02T03:08:08.260Z,9.17
2023-05-02T03:09:08.245Z,9.19
2023-05-02T03:10:08.255Z,9.22
2023-05-02T03:11:08.239Z,9.23
2023-05-02T03:12:08.226Z,9.22
2023-05-02T03:13:08.208Z,9.22
2023-05-02T03:14:08.200Z,9.24
2023-05-02T03:15:08.191Z,9.24
2023-05-02T03:16:08.203Z,9.24
2023-05-02T03:17:08.155Z,9.26
2023-05-02T03:18:08.210Z,9.24
2023-05-02T03:19:08.127Z,9.26
2023-05-02T03:20:08.139Z,9.27
2023-05-02T03:21:08.103Z,9.27
2023-05-02T03:22:08.097Z,9.27
2023-05-02T03:23:08.070Z,9.30
2023-05-02T03:24:08.096Z,9.30
2023-05-02T03:25:08.074Z,9.30
2023-05-02T03:26:08.046Z,9.32
2023-05-02T03:27:08.028Z,9.34
2023-05-02T03:28:08.035Z,9.34
2023-05-02T03:29:08.001Z,9.37
2023-05-02T03:30:08.002Z,9.38
2023-05-02T03:31:07.991Z,9.40
2023-05-02T03:32:08.005Z,9.42
2023-05-02T03:33:08.026Z,9.42
2023-05-02T03:34:07.946Z,9.42
2023-05-02T03:35:07.948Z,9.45
2023-05-02T03:36:07.908Z,9.45
2023-05-02T03:37:07.879Z,9.45
2023-05-02T03:38:07.910Z,9.45
2023-05-02T03:39:07.919Z,9.50
2023-05-02T03:40:07.886Z,9.50
2023-05-02T03:41:07.854Z,9.49
2023-05-02T03:42:07.822Z,9.50
2023-05-02T03:43:07.798Z,9.52
2023-05-02T03:44:07.820Z,9.49
2023-05-02T03:45:07.800Z,9.50
2023-05-02T03:46:07.792Z,9.50
2023-05-02T03:47:07.865Z,9.50
2023-05-02T03:48:07.846Z,9.50
2023-05-02T03:49:07.728Z,9.49
2023-05-02T03:50:07.786Z,9.50
2023-05-02T03:51:07.747Z,9.52
2023-05-02T03:52:07.697Z,9.52
2023-05-02T03:53:07.667Z,9.52
2023-05-02T03:54:07.700Z,9.50
2023-05-02T03:55:07.690Z,9.50
2023-05-02T03:56:07.641Z,9.50
2023-05-02T03:57:07.625Z,9.50
2023-05-02T03:58:07.664Z,9.50
2023-05-02T03:59:07.586Z,9.50
2023-05-02T04:00:07.631Z,9.50
2023-05-02T04:01:07.595Z,9.52
2023-05-02T04:02:07.608Z,9.52
2023-05-02T04:03:07.588Z,9.52
2023-05-02T04:04:07.638Z,9.52
2023-05-02T04:05:07.540Z,9.53
2023-05-02T04:06:07.560Z,9.52
2023-05-02T04:07:07.492Z,9.53
2023-05-02T04:08:07.486Z,9.55
2023-05-02T04:09:07.477Z,9.56
2023-05-02T04:10:07.567Z,9.56
2023-05-02T04:11:07.432Z,9.56
2023-05-02T04:12:07.446Z,9.56
2023-05-02T04:13:07.422Z,9.56
2023-05-02T04:14:07.413Z,9.58
2023-05-02T04:15:07.450Z,9.58
2023-05-02T04:16:07.382Z,9.58
2023-05-02T04:17:07.498Z,9.58
2023-05-02T04:18:07.418Z,9.59
2023-05-02T04:19:07.343Z,9.59
2023-05-02T04:20:07.666Z,9.60
2023-05-02T04:21:07.301Z,9.60
2023-05-02T04:22:07.319Z,9.59
2023-05-02T04:23:07.270Z,9.59
2023-05-02T04:24:07.279Z,9.58
2023-05-02T04:25:07.290Z,9.56
2023-05-02T04:26:07.309Z,9.55
2023-05-02T04:27:07.228Z,9.58
2023-05-02T04:28:07.273Z,9.60
2023-05-02T04:29:07.196Z,9.62
2023-05-02T04:30:07.213Z,9.65
2023-05-02T04:31:07.221Z,9.67
2023-05-02T04:32:07.181Z,9.70
2023-05-02T04:33:07.203Z,9.68
2023-05-02T04:34:07.135Z,9.71
2023-05-02T04:35:07.139Z,9.71
2023-05-02T04:36:07.102Z,9.73
2023-05-02T04:37:07.090Z,9.75
2023-05-02T04:38:07.090Z,9.78
2023-05-02T04:39:07.082Z,9.83
2023-05-02T04:40:07.082Z,9.85
2023-05-02T04:41:09.094Z,9.89
2023-05-02T04:42:07.033Z,9.93
2023-05-02T04:43:07.030Z,9.96
2023-05-02T04:44:07.028Z,10.01
2023-05-02T04:45:07.058Z,10.06
2023-05-02T04:46:07.035Z,10.09
2023-05-02T04:47:06.966Z,10.11
2023-05-02T04:48:07.011Z,10.14
2023-05-02T04:49:06.936Z,10.17
2023-05-02T04:50:06.929Z,10.24
2023-05-02T04:51:06.915Z,10.25
2023-05-02T04:52:06.891Z,10.29
2023-05-02T04:53:06.882Z,10.32
2023-05-02T04:54:06.887Z,10.36
2023-05-02T04:55:06.893Z,10.39
2023-05-02T04:56:06.838Z,10.44
2023-05-02T04:57:06.932Z,10.47
2023-05-02T04:58:06.830Z,10.49
2023-05-02T04:59:06.812Z,10.52
2023-05-02T05:00:06.825Z,10.55
2023-05-02T05:01:06.787Z,10.57
2023-05-02T05:02:06.804Z,10.60
2023-05-02T05:03:06.835Z,10.65
2023-05-02T05:04:06.889Z,10.69
2023-05-02T05:05:06.949Z,10.73
2023-05-02T05:06:06.785Z,10.75
2023-05-02T05:07:06.746Z,10.78
2023-05-02T05:08:06.694Z,10.81
2023-05-02T05:09:06.705Z,10.84
2023-05-02T05:10:06.689Z,10.87
2023-05-02T05:11:06.657Z,10.88
2023-05-02T05:12:06.647Z,10.91
2023-05-02T05:13:06.642Z,10.94
2023-05-02T05:14:06.620Z,10.99
2023-05-02T05:15:06.626Z,11.02
2023-05-02T05:16:06.655Z,11.05
2023-05-02T05:17:06.577Z,11.08
2023-05-02T05:18:06.609Z,11.11
2023-05-02T05:19:06.550Z,11.13
2023-05-02T05:20:08.959Z,11.17
2023-05-02T05:21:06.517Z,11.20
2023-05-02T05:22:06.564Z,11.21
2023-05-02T05:23:06.486Z,11.26
2023-05-02T05:24:06.499Z,11.27
2023-05-02T05:25:06.585Z,11.30
2023-05-02T05:26:06.457Z,11.31
2023-05-02T05:27:06.447Z,11.35
2023-05-02T05:28:06.439Z,11.36
2023-05-02T05:29:06.403Z,11.39
2023-05-02T05:30:06.433Z,11.41
2023-05-02T05:31:06.412Z,11.42
2023-05-02T05:32:06.542Z,11.44
2023-05-02T05:33:06.416Z,11.45
2023-05-02T05:34:06.388Z,11.48
2023-05-02T05:35:06.364Z,11.48
2023-05-02T05:36:06.342Z,11.51
2023-05-02T05:37:06.304Z,11.53
2023-05-02T05:38:06.316Z,11.54
2023-05-02T05:39:06.321Z,11.56
2023-05-02T05:40:06.288Z,11.57
2023-05-02T05:41:06.270Z,11.59
2023-05-02T05:42:06.248Z,11.60
2023-05-02T05:43:06.215Z,11.60
2023-05-02T05:44:06.231Z,11.62
2023-05-02T05:45:06.220Z,11.63
2023-05-02T05:46:06.252Z,11.66
2023-05-02T05:47:06.225Z,11.67
2023-05-02T05:48:06.227Z,11.70
2023-05-02T05:49:06.165Z,11.74
2023-05-02T05:50:06.185Z,11.75
2023-05-02T05:51:06.134Z,11.75
2023-05-02T05:52:06.110Z,11.81
2023-05-02T05:53:06.103Z,11.82
2023-05-02T05:54:06.101Z,11.85
2023-05-02T05:55:06.081Z,11.88
2023-05-02T05:56:06.082Z,11.93
2023-05-02T05:57:06.024Z,11.97
2023-05-02T05:58:06.044Z,12.00
2023-05-02T05:59:06.036Z,12.03
2023-05-02T06:00:06.015Z,12.05
2023-05-02T06:01:06.015Z,12.08
2023-05-02T06:02:06.052Z,12.12
2023-05-02T06:03:08.148Z,12.18
2023-05-02T06:04:06.099Z,12.21
2023-05-02T06:05:05.992Z,12.25
2023-05-02T06:06:06.012Z,12.25
2023-05-02T06:07:05.905Z,12.30
2023-05-02T06:08:05.903Z,12.30
2023-05-02T06:09:05.910Z,12.33
2023-05-02T06:10:05.867Z,12.37
2023-05-02T06:11:05.849Z,12.38
2023-05-02T06:12:05.856Z,12.40
2023-05-02T06:13:05.825Z,12.41
2023-05-02T06:14:05.905Z,12.44
2023-05-02T06:15:05.833Z,12.44
2023-05-02T06:16:05.809Z,12.48
2023-05-02T06:17:05.775Z,12.49
2023-05-02T06:18:05.833Z,12.51
2023-05-02T06:19:05.758Z,12.54
2023-05-02T06:20:05.744Z,12.55
2023-05-02T06:21:05.734Z,12.58
2023-05-02T06:22:05.752Z,12.61
2023-05-02T06:23:05.705Z,12.62
2023-05-02T06:24:05.696Z,12.66
2023-05-02T06:25:05.679Z,12.70
2023-05-02T06:26:05.719Z,12.73
2023-05-02T06:27:05.672Z,12.77
2023-05-02T06:28:05.797Z,12.81
2023-05-02T06:29:05.680Z,12.87
2023-05-02T06:30:05.632Z,12.89
2023-05-02T06:31:05.726Z,12.95
2023-05-02T06:32:05.702Z,12.99
2023-05-02T06:33:05.663Z,13.03
2023-05-02T06:34:05.594Z,13.06
2023-05-02T06:35:05.559Z,13.09
2023-05-02T06:36:05.577Z,13.12
2023-05-02T06:37:05.516Z,13.13
2023-05-02T06:38:05.531Z,13.14
2023-05-02T06:39:05.533Z,13.19
2023-05-02T06:40:05.511Z,13.21
2023-05-02T06:41:05.468Z,13.22
2023-05-02T06:42:05.475Z,13.22
2023-05-02T06:43:05.457Z,13.25
2023-05-02T06:44:05.467Z,13.27
2023-05-02T06:45:05.422Z,13.28
2023-05-02T06:46:05.403Z,13.29
2023-05-02T06:47:05.457Z,13.29
2023-05-02T06:48:05.400Z,13.31
2023-05-02T06:49:05.373Z,13.35
2023-05-02T06:50:05.376Z,13.36
2023-05-02T06:51:05.327Z,13.39
2023-05-02T06:52:05.318Z,13.43
2023-05-02T06:53:05.326Z,13.43
2023-05-02T06:54:05.310Z,13.46
2023-05-02T06:55:05.275Z,13.48
2023-05-02T06:56:05.282Z,13.51
2023-05-02T06:57:05.736Z,13.54
2023-05-02T06:58:05.256Z,13.55
2023-05-02T06:59:06.225Z,13.57
2023-05-02T07:00:06.176Z,13.61
2023-05-02T07:01:05.514Z,13.62
2023-05-02T07:02:06.030Z,13.63
2023-05-02T07:03:05.652Z,13.65
2023-05-02T07:04:05.917Z,13.66
2023-05-02T07:05:05.411Z,13.66
2023-05-02T07:06:05.971Z,13.68
2023-05-02T07:07:05.121Z,13.69
2023-05-02T07:08:05.127Z,13.69
2023-05-02T07:09:05.121Z,13.68
2023-05-02T07:10:05.087Z,13.69
2023-05-02T07:11:05.100Z,13.71
2023-05-02T07:12:06.939Z,13.72
2023-05-02T07:13:05.058Z,13.72
2023-05-02T07:14:05.054Z,13.71
2023-05-02T07:15:05.024Z,13.71
2023-05-02T07:16:05.035Z,13.71
2023-05-02T07:17:05.023Z,13.71
2023-05-02T07:18:05.005Z,13.71
2023-05-02T07:19:04.975Z,13.72
2023-05-02T07:20:05.297Z,13.73
2023-05-02T07:21:04.956Z,13.75
2023-05-02T07:22:04.949Z,13.76
2023-05-02T07:23:04.902Z,13.79
2023-05-02T07:24:04.903Z,13.81
2023-05-02T07:25:04.898Z,13.83
2023-05-02T07:26:06.211Z,13.84
2023-05-02T07:27:04.864Z,13.86
2023-05-02T07:28:04.836Z,13.88
2023-05-02T07:29:04.861Z,13.91
2023-05-02T07:30:04.835Z,13.93
2023-05-02T07:31:04.815Z,13.96
2023-05-02T07:32:04.816Z,13.99
2023-05-02T07:33:04.852Z,13.99
2023-05-02T07:34:04.791Z,14.04
2023-05-02T07:35:04.746Z,14.04
2023-05-02T07:36:04.756Z,14.08
2023-05-02T07:37:04.740Z,14.08
2023-05-02T07:38:04.737Z,14.11
2023-05-02T07:39:04.738Z,14.13
2023-05-02T07:40:05.086Z,14.16
2023-05-02T07:41:04.676Z,14.19
2023-05-02T07:42:04.668Z,14.20
2023-05-02T07:43:04.679Z,14.23
2023-05-02T07:44:04.658Z,14.24
2023-05-02T07:45:04.642Z,14.29
2023-05-02T07:46:04.669Z,14.31
2023-05-02T07:47:04.623Z,14.38
2023-05-02T07:48:04.627Z,14.41
2023-05-02T07:49:04.602Z,14.42
2023-05-02T07:50:04.813Z,14.45
2023-05-02T07:51:04.581Z,14.45
2023-05-02T07:52:04.597Z,14.46
2023-05-02T07:53:04.529Z,14.48
2023-05-02T07:54:04.512Z,14.49
2023-05-02T07:55:04.501Z,14.52
2023-05-02T07:56:04.489Z,14.54
2023-05-02T07:57:04.464Z,14.57
2023-05-02T07:58:04.454Z,14.60
2023-05-02T07:59:05.644Z,14.63
2023-05-02T08:00:04.665Z,14.66
2023-05-02T08:01:04.454Z,14.71
2023-05-02T08:02:04.415Z,14.74
2023-05-02T08:03:05.335Z,14.79
2023-05-02T08:04:04.664Z,14.86
2023-05-02T08:05:04.418Z,14.93
2023-05-02T08:06:04.388Z,15.00
2023-05-02T08:07:04.337Z,15.09
2023-05-02T08:08:04.342Z,15.16
2023-05-02T08:09:04.326Z,15.23
2023-05-02T08:10:04.576Z,15.30
2023-05-02T08:11:04.298Z,15.40
2023-05-02T08:12:04.280Z,15.48
2023-05-02T08:13:04.279Z,15.55
2023-05-02T08:14:04.263Z,15.64
2023-05-02T08:15:04.250Z,15.76
2023-05-02T08:16:04.302Z,15.86
2023-05-02T08:17:04.226Z,15.93
2023-05-02T08:18:04.260Z,16.01
2023-05-02T08:19:04.194Z,16.06
2023-05-02T08:20:04.871Z,16.11
2023-05-02T08:21:04.170Z,16.16
2023-05-02T08:22:06.007Z,16.22
2023-05-02T08:23:07.507Z,16.22
2023-05-02T08:24:05.640Z,16.18
2023-05-02T08:25:05.187Z,16.18
2023-05-02T08:26:05.485Z,16.17
2023-05-02T08:27:05.549Z,16.17
2023-05-02T08:28:05.797Z,16.17
2023-05-02T08:29:05.251Z,16.17
2023-05-02T08:30:04.765Z,16.17
2023-05-02T08:31:05.217Z,16.17
2023-05-02T08:32:05.640Z,16.16
2023-05-02T08:33:05.457Z,16.14
2023-05-02T08:34:05.161Z,16.11
2023-05-02T08:35:05.096Z,16.06
2023-05-02T08:36:05.667Z,15.99
2023-05-02T08:37:04.653Z,15.96
2023-05-02T08:38:03.928Z,15.93
2023-05-02T08:39:05.077Z,15.91
2023-05-02T08:40:05.160Z,15.88
2023-05-02T08:41:05.381Z,15.85
2023-05-02T08:42:04.565Z,15.84
2023-05-02T08:43:06.536Z,15.80
2023-05-02T08:44:05.520Z,15.77
2023-05-02T08:45:04.162Z,15.74
2023-05-02T08:46:04.624Z,15.73
2023-05-02T08:47:05.576Z,15.68
2023-05-02T08:48:05.227Z,15.60
2023-05-02T08:49:05.586Z,15.56
2023-05-02T08:50:05.178Z,15.51
2023-05-02T08:51:04.785Z,15.46
2023-05-02T08:52:04.535Z,15.43
2023-05-02T08:53:05.310Z,15.35
2023-05-02T08:54:05.050Z,15.31
2023-05-02T08:55:04.999Z,15.27
2023-05-02T08:56:05.002Z,15.22
2023-05-02T08:57:05.212Z,15.20
2023-05-02T08:58:05.319Z,15.19
2023-05-02T08:59:04.860Z,15.19
2023-05-02T09:00:09.798Z,15.18
2023-05-02T09:01:04.329Z,15.16
2023-05-02T09:02:05.488Z,15.13
2023-05-02T09:03:04.778Z,15.15
2023-05-02T09:04:05.482Z,15.15
2023-05-02T09:05:05.550Z,15.16
2023-05-02T09:06:05.746Z,15.16
2023-05-02T09:07:06.423Z,15.18
2023-05-02T09:08:04.237Z,15.19
2023-05-02T09:09:04.961Z,15.23
2023-05-02T09:10:04.944Z,15.27
2023-05-02T09:11:06.018Z,15.30
2023-05-02T09:12:04.988Z,15.33
2023-05-02T09:13:05.405Z,15.37
2023-05-02T09:14:05.489Z,15.43
2023-05-02T09:15:05.016Z,15.51
2023-05-02T09:16:07.117Z,15.60
2023-05-02T09:17:04.462Z,15.71
2023-05-02T09:18:06.410Z,15.81
2023-05-02T09:19:04.528Z,15.93
2023-05-02T09:20:05.088Z,16.01
2023-05-02T09:21:04.556Z,16.10
2023-05-02T09:22:04.654Z,16.17
2023-05-02T09:23:04.947Z,16.27
2023-05-02T09:24:04.687Z,16.34
2023-05-02T09:25:08.852Z,16.40
2023-05-02T09:26:04.731Z,16.44
2023-05-02T09:27:04.329Z,16.50
2023-05-02T09:28:08.741Z,16.54
2023-05-02T09:29:04.754Z,16.60
2023-05-02T09:30:04.460Z,16.62
2023-05-02T09:31:04.594Z,16.65
2023-05-02T09:32:04.156Z,16.67
2023-05-02T09:33:04.350Z,16.66
2023-05-02T09:34:04.582Z,16.63
2023-05-02T09:35:05.105Z,16.60
2023-05-02T09:36:08.176Z,16.59
2023-05-02T09:37:05.532Z,16.57
2023-05-02T09:38:07.275Z,16.51
2023-05-02T09:39:08.722Z,16.47
2023-05-02T09:40:06.381Z,16.45
2023-05-02T09:41:05.481Z,16.44
2023-05-02T09:42:05.423Z,16.41
2023-05-02T09:43:05.138Z,16.40
2023-05-02T09:44:04.856Z,16.37
2023-05-02T09:45:04.837Z,16.37
2023-05-02T09:46:05.130Z,16.37
2023-05-02T09:47:04.896Z,16.36
2023-05-02T09:48:06.044Z,16.37
2023-05-02T09:49:04.624Z,16.40
2023-05-02T09:50:05.419Z,16.42
2023-05-02T09:51:03.745Z,16.41
2023-05-02T09:52:04.913Z,16.44
2023-05-02T09:53:05.638Z,16.44
2023-05-02T09:54:04.152Z,16.47
2023-05-02T09:55:05.468Z,16.50
2023-05-02T09:56:05.376Z,16.52
2023-05-02T09:57:05.311Z,16.54
2023-05-02T09:58:05.944Z,16.59
2023-05-02T09:59:02.876Z,16.62
2023-05-02T10:00:02.835Z,16.66
2023-05-02T10:01:02.855Z,16.75
2023-05-02T10:02:03.163Z,16.90
2023-05-02T10:03:02.867Z,17.15
2023-05-02T10:04:05.312Z,17.35
2023-05-02T10:05:04.073Z,17.55
2023-05-02T10:06:04.240Z,17.66
2023-05-02T10:07:04.403Z,17.79
2023-05-02T10:08:04.524Z,17.87
2023-05-02T10:09:04.915Z,17.92
2023-05-02T10:10:04.290Z,17.96
2023-05-02T10:11:04.977Z,18.04
2023-05-02T10:12:04.250Z,18.09
2023-05-02T10:13:03.770Z,18.11
2023-05-02T10:14:04.338Z,18.14
2023-05-02T10:15:04.781Z,18.17
2023-05-02T10:16:04.308Z,18.21
2023-05-02T10:17:04.318Z,18.34
2023-05-02T10:18:04.951Z,18.46
2023-05-02T10:19:03.680Z,18.49
2023-05-02T10:20:04.938Z,18.51
2023-05-02T10:21:04.345Z,18.57
2023-05-02T10:22:04.110Z,18.62
2023-05-02T10:23:04.979Z,18.65
2023-05-02T10:24:04.367Z,18.66
2023-05-02T10:25:04.381Z,18.71
2023-05-02T10:26:04.284Z,18.78
2023-05-02T10:27:04.176Z,18.79
2023-05-02T10:28:04.543Z,18.84
2023-05-02T10:29:04.306Z,18.90
2023-05-02T10:30:04.037Z,18.99
2023-05-02T10:31:04.559Z,19.12
2023-05-02T10:32:04.738Z,19.20
2023-05-02T10:33:04.908Z,19.30
2023-05-02T10:34:03.926Z,19.32
2023-05-02T10:35:03.541Z,19.35
2023-05-02T10:36:04.503Z,19.40
2023-05-02T10:37:04.228Z,19.42
2023-05-02T10:38:04.961Z,19.45
2023-05-02T10:39:04.139Z,19.46
2023-05-02T10:40:04.656Z,19.43
2023-05-02T10:41:04.289Z,19.40
2023-05-02T10:42:04.670Z,19.38
2023-05-02T10:43:05.730Z,19.32
2023-05-02T10:44:04.310Z,19.31
2023-05-02T10:45:04.178Z,19.32
2023-05-02T10:46:04.586Z,19.31
2023-05-02T10:47:02.421Z,19.31
2023-05-02T10:48:02.247Z,19.30
2023-05-02T10:49:02.194Z,19.27
2023-05-02T10:50:02.209Z,19.25
2023-05-02T10:51:02.180Z,19.20
2023-05-02T10:52:02.151Z,19.06
2023-05-02T10:53:02.162Z,18.93
2023-05-02T10:54:02.132Z,18.87
2023-05-02T10:55:02.252Z,18.82
2023-05-02T10:56:02.103Z,18.75
2023-05-02T10:57:02.094Z,18.69
2023-05-02T10:58:02.094Z,18.66
2023-05-02T10:59:02.090Z,18.64
2023-05-02T11:00:02.054Z,18.59
2023-05-02T11:01:02.105Z,18.56
2023-05-02T11:02:02.792Z,18.51
2023-05-02T11:03:02.423Z,18.47
2023-05-02T11:04:01.995Z,18.36
2023-05-02T11:05:02.380Z,18.23
2023-05-02T11:06:02.004Z,18.16
2023-05-02T11:07:02.019Z,18.07
2023-05-02T11:08:01.962Z,18.01
2023-05-02T11:09:01.926Z,17.94
2023-05-02T11:10:01.917Z,17.91
2023-05-02T11:11:01.995Z,17.86
2023-05-02T11:12:01.894Z,17.81
2023-05-02T11:13:01.914Z,17.79
2023-05-02T11:14:01.862Z,17.76
2023-05-02T11:15:02.053Z,17.70
2023-05-02T11:16:01.909Z,17.65
2023-05-02T11:17:01.881Z,17.62
2023-05-02T11:18:01.894Z,17.63
2023-05-02T11:19:01.793Z,17.62
2023-05-02T11:20:01.801Z,17.62
2023-05-02T11:21:01.781Z,17.62
2023-05-02T11:22:01.767Z,17.60
2023-05-02T11:23:01.770Z,17.62
2023-05-02T11:24:01.736Z,17.66
2023-05-02T11:25:02.135Z,17.70
2023-05-02T11:26:01.719Z,17.73
2023-05-02T11:27:01.701Z,17.76
2023-05-02T11:28:01.695Z,17.79
2023-05-02T11:29:01.676Z,17.79
2023-05-02T11:30:01.656Z,17.81
2023-05-02T11:31:01.660Z,17.83
2023-05-02T11:32:01.837Z,17.83
2023-05-02T11:33:01.654Z,17.81
2023-05-02T11:34:01.603Z,17.79
2023-05-02T11:35:01.888Z,17.77
2023-05-02T11:36:01.623Z,17.76
2023-05-02T11:37:01.562Z,17.74
2023-05-02T11:38:02.254Z,17.71
2023-05-02T11:39:04.456Z,17.68
2023-05-02T11:40:04.449Z,17.68
2023-05-02T11:41:01.509Z,17.66
2023-05-02T11:42:01.513Z,17.58
2023-05-02T11:43:01.522Z,17.51
2023-05-02T11:44:01.485Z,17.49
2023-05-02T11:45:01.838Z,17.47
2023-05-02T11:46:01.948Z,17.47
2023-05-02T11:47:01.449Z,17.47
2023-05-02T11:48:01.527Z,17.47
2023-05-02T11:49:01.430Z,17.47
2023-05-02T11:50:01.401Z,17.51
2023-05-02T11:51:01.383Z,17.55
2023-05-02T11:52:01.366Z,17.58
2023-05-02T11:53:01.400Z,17.65
2023-05-02T11:54:01.362Z,17.71
2023-05-02T11:55:01.603Z,17.81
2023-05-02T11:56:01.325Z,17.86
2023-05-02T11:57:01.309Z,17.94
2023-05-02T11:58:01.310Z,17.98
2023-05-02T11:59:01.294Z,18.07
2023-05-02T12:00:01.268Z,18.14
2023-05-02T12:01:01.263Z,18.21
2023-05-02T12:02:01.251Z,18.29
2023-05-02T12:03:03.908Z,18.29
2023-05-02T12:04:01.787Z,18.31
2023-05-02T12:05:01.414Z,18.31
2023-05-02T12:06:03.311Z,18.28
2023-05-02T12:07:02.782Z,18.31
2023-05-02T12:08:02.922Z,18.34
2023-05-02T12:09:01.144Z,18.34
2023-05-02T12:10:01.126Z,18.31
2023-05-02T12:11:01.136Z,18.25
2023-05-02T12:12:01.119Z,18.23
2023-05-02T12:13:01.091Z,18.21
2023-05-02T12:14:01.098Z,18.19
2023-05-02T12:15:01.217Z,18.20
2023-05-02T12:16:01.107Z,18.19
2023-05-02T12:17:01.048Z,18.17
2023-05-02T12:18:01.096Z,18.14
2023-05-02T12:19:01.090Z,18.13
2023-05-02T12:20:01.053Z,18.10
2023-05-02T12:21:00.989Z,18.09
2023-05-02T12:22:00.980Z,18.07
2023-05-02T12:23:00.983Z,18.01
2023-05-02T12:24:00.960Z,17.91
2023-05-02T12:25:02.449Z,17.76
2023-05-02T12:26:00.935Z,17.65
2023-05-02T12:27:00.900Z,17.53
2023-05-02T12:28:00.938Z,17.39
2023-05-02T12:29:00.915Z,17.27
2023-05-02T12:30:01.085Z,17.14
2023-05-02T12:31:00.876Z,16.99
2023-05-02T12:32:00.975Z,16.90
2023-05-02T12:33:00.874Z,16.81
2023-05-02T12:34:00.888Z,16.72
2023-05-02T12:35:00.824Z,16.62
2023-05-02T12:36:00.786Z,16.52
2023-05-02T12:37:00.778Z,16.42
2023-05-02T12:38:00.797Z,16.34
2023-05-02T12:39:00.763Z,16.27
2023-05-02T12:40:01.087Z,16.23
